sensor_id;sensor_type;location;lat;lon;timestamp;P1;durP1;ratioP1;P2;durP2;ratioP2
20503;SDS011;10410;51.046;6.980;2022-07-23T00:01:33;16.67;;;7.67;;
20503;SDS011;10410;51.046;6.980;2022-07-23T00:08:34;24.33;;;8.77;;
20503;SDS011;10410;51.046;6.980;2022-07-23T00:15:35;13.00;;;6.37;;
20503;SDS011;10410;51.046;6.980;2022-07-23T00:22:36;16.07;;;6.07;;
20503;SDS011;10410;51.046;6.980;2022-07-23T00:29:36;16.03;;;6.43;;
20503;SDS011;10410;51.046;6.980;2022-07-23T00:36:37;17.27;;;6.80;;
20503;SDS011;10410;51.046;6.980;2022-07-23T00:43:38;19.47;;;7.00;;
20503;SDS011;10410;51.046;6.980;2022-07-23T00:50:39;19.40;;;7.37;;
20503;SDS011;10410;51.046;6.980;2022-07-23T00:57:40;16.47;;;6.73;;
20503;SDS011;10410;51.046;6.980;2022-07-23T01:04:41;15.57;;;7.37;;
20503;SDS011;10410;51.046;6.980;2022-07-23T01:11:42;21.00;;;8.23;;
20503;SDS011;10410;51.046;6.980;2022-07-23T01:18:43;16.73;;;7.43;;
20503;SDS011;10410;51.046;6.980;2022-07-23T01:25:54;21.67;;;8.97;;
20503;SDS011;10410;51.046;6.980;2022-07-23T01:32:57;20.53;;;7.87;;
20503;SDS011;10410;51.046;6.980;2022-07-23T01:39:58;18.30;;;8.00;;
20503;SDS011;10410;51.046;6.980;2022-07-23T01:46:59;19.37;;;8.27;;
20503;SDS011;10410;51.046;6.980;2022-07-23T01:54:00;19.27;;;7.63;;
20503;SDS011;10410;51.046;6.980;2022-07-23T02:01:00;16.17;;;7.97;;
20503;SDS011;10410;51.046;6.980;2022-07-23T02:08:01;16.33;;;7.63;;
20503;SDS011;10410;51.046;6.980;2022-07-23T02:15:07;20.43;;;8.30;;
20503;SDS011;10410;51.046;6.980;2022-07-23T02:22:08;21.07;;;9.60;;
20503;SDS011;10410;51.046;6.980;2022-07-23T02:29:09;28.13;;;8.60;;
20503;SDS011;10410;51.046;6.980;2022-07-23T02:36:09;21.97;;;9.57;;
20503;SDS011;10410;51.046;6.980;2022-07-23T02:43:10;21.77;;;9.57;;
20503;SDS011;10410;51.046;6.980;2022-07-23T02:50:11;22.10;;;9.23;;
20503;SDS011;10410;51.046;6.980;2022-07-23T02:57:12;24.87;;;9.23;;
20503;SDS011;10410;51.046;6.980;2022-07-23T03:04:14;24.90;;;9.93;;
20503;SDS011;10410;51.046;6.980;2022-07-23T03:11:16;23.07;;;9.67;;
20503;SDS011;10410;51.046;6.980;2022-07-23T03:18:16;20.03;;;9.13;;
20503;SDS011;10410;51.046;6.980;2022-07-23T03:25:17;20.53;;;8.97;;
20503;SDS011;10410;51.046;6.980;2022-07-23T03:32:18;18.93;;;9.00;;
20503;SDS011;10410;51.046;6.980;2022-07-23T03:39:20;25.03;;;8.40;;
20503;SDS011;10410;51.046;6.980;2022-07-23T03:46:21;19.60;;;9.03;;
20503;SDS011;10410;51.046;6.980;2022-07-23T03:53:21;19.13;;;8.83;;
20503;SDS011;10410;51.046;6.980;2022-07-23T04:00:22;14.23;;;7.13;;
20503;SDS011;10410;51.046;6.980;2022-07-23T04:07:24;17.60;;;8.20;;
20503;SDS011;10410;51.046;6.980;2022-07-23T04:14:25;19.37;;;8.27;;
20503;SDS011;10410;51.046;6.980;2022-07-23T04:21:26;16.60;;;7.70;;
20503;SDS011;10410;51.046;6.980;2022-07-23T04:28:28;19.37;;;8.07;;
20503;SDS011;10410;51.046;6.980;2022-07-23T04:35:29;19.77;;;7.83;;
20503;SDS011;10410;51.046;6.980;2022-07-23T04:42:39;18.67;;;8.83;;
20503;SDS011;10410;51.046;6.980;2022-07-23T04:49:40;22.10;;;8.60;;
20503;SDS011;10410;51.046;6.980;2022-07-23T04:56:40;20.83;;;8.83;;
20503;SDS011;10410;51.046;6.980;2022-07-23T05:03:41;15.40;;;7.50;;
20503;SDS011;10410;51.046;6.980;2022-07-23T05:10:42;23.40;;;8.60;;
20503;SDS011;10410;51.046;6.980;2022-07-23T05:17:42;20.50;;;8.67;;
20503;SDS011;10410;51.046;6.980;2022-07-23T05:24:48;16.60;;;7.67;;
20503;SDS011;10410;51.046;6.980;2022-07-23T05:31:48;16.80;;;8.57;;
20503;SDS011;10410;51.046;6.980;2022-07-23T05:38:50;20.67;;;8.87;;
20503;SDS011;10410;51.046;6.980;2022-07-23T05:45:51;28.47;;;9.47;;
20503;SDS011;10410;51.046;6.980;2022-07-23T05:52:51;16.73;;;8.40;;
20503;SDS011;10410;51.046;6.980;2022-07-23T06:00:10;24.23;;;9.60;;
20503;SDS011;10410;51.046;6.980;2022-07-23T06:07:17;27.07;;;10.30;;
20503;SDS011;10410;51.046;6.980;2022-07-23T06:14:17;29.70;;;10.97;;
20503;SDS011;10410;51.046;6.980;2022-07-23T06:21:25;25.33;;;11.37;;
20503;SDS011;10410;51.046;6.980;2022-07-23T06:28:47;24.07;;;10.83;;
20503;SDS011;10410;51.046;6.980;2022-07-23T06:35:48;27.43;;;10.30;;
20503;SDS011;10410;51.046;6.980;2022-07-23T06:42:49;25.93;;;10.33;;
20503;SDS011;10410;51.046;6.980;2022-07-23T06:49:54;22.07;;;10.23;;
20503;SDS011;10410;51.046;6.980;2022-07-23T06:56:57;24.00;;;9.87;;
20503;SDS011;10410;51.046;6.980;2022-07-23T07:04:00;19.90;;;7.73;;
20503;SDS011;10410;51.046;6.980;2022-07-23T07:11:00;16.77;;;7.30;;
20503;SDS011;10410;51.046;6.980;2022-07-23T07:18:02;13.73;;;6.73;;
20503;SDS011;10410;51.046;6.980;2022-07-23T07:25:03;11.80;;;5.70;;
20503;SDS011;10410;51.046;6.980;2022-07-23T07:32:04;14.30;;;6.13;;
20503;SDS011;10410;51.046;6.980;2022-07-23T07:39:05;12.80;;;5.80;;
20503;SDS011;10410;51.046;6.980;2022-07-23T07:46:06;18.33;;;6.57;;
20503;SDS011;10410;51.046;6.980;2022-07-23T07:53:09;13.27;;;6.10;;
20503;SDS011;10410;51.046;6.980;2022-07-23T08:00:11;15.00;;;5.00;;
20503;SDS011;10410;51.046;6.980;2022-07-23T08:07:11;12.03;;;5.23;;
20503;SDS011;10410;51.046;6.980;2022-07-23T08:14:12;12.57;;;4.83;;
20503;SDS011;10410;51.046;6.980;2022-07-23T08:21:13;17.73;;;5.80;;
20503;SDS011;10410;51.046;6.980;2022-07-23T08:28:14;8.63;;;4.17;;
20503;SDS011;10410;51.046;6.980;2022-07-23T08:35:16;16.83;;;7.03;;
20503;SDS011;10410;51.046;6.980;2022-07-23T08:42:18;15.80;;;6.20;;
20503;SDS011;10410;51.046;6.980;2022-07-23T08:49:21;21.03;;;6.00;;
20503;SDS011;10410;51.046;6.980;2022-07-23T08:56:23;14.53;;;5.47;;
20503;SDS011;10410;51.046;6.980;2022-07-23T09:03:28;20.13;;;8.57;;
20503;SDS011;10410;51.046;6.980;2022-07-23T09:10:50;18.30;;;9.17;;
20503;SDS011;10410;51.046;6.980;2022-07-23T09:17:55;16.97;;;7.97;;
20503;SDS011;10410;51.046;6.980;2022-07-23T09:25:03;24.07;;;8.80;;
20503;SDS011;10410;51.046;6.980;2022-07-23T09:32:13;18.37;;;7.60;;
20503;SDS011;10410;51.046;6.980;2022-07-23T09:39:14;21.27;;;8.77;;
20503;SDS011;10410;51.046;6.980;2022-07-23T09:46:27;27.57;;;7.97;;
20503;SDS011;10410;51.046;6.980;2022-07-23T09:53:29;14.17;;;6.27;;
20503;SDS011;10410;51.046;6.980;2022-07-23T10:00:30;20.97;;;8.20;;
20503;SDS011;10410;51.046;6.980;2022-07-23T10:07:32;17.13;;;7.10;;
20503;SDS011;10410;51.046;6.980;2022-07-23T10:14:54;19.37;;;6.93;;
20503;SDS011;10410;51.046;6.980;2022-07-23T10:21:58;16.97;;;6.97;;
20503;SDS011;10410;51.046;6.980;2022-07-23T10:29:02;15.95;;;5.30;;
20503;SDS011;10410;51.046;6.980;2022-07-23T10:36:20;15.50;;;4.38;;
20503;SDS011;10410;51.046;6.980;2022-07-23T10:43:23;5.57;;;2.95;;
20503;SDS011;10410;51.046;6.980;2022-07-23T10:50:24;7.38;;;3.60;;
20503;SDS011;10410;51.046;6.980;2022-07-23T10:57:32;8.38;;;4.00;;
20503;SDS011;10410;51.046;6.980;2022-07-23T11:04:49;11.30;;;4.53;;
20503;SDS011;10410;51.046;6.980;2022-07-23T11:19:20;8.25;;;4.65;;
20503;SDS011;10410;51.046;6.980;2022-07-23T11:33:41;5.90;;;2.95;;
20503;SDS011;10410;51.046;6.980;2022-07-23T11:40:45;8.30;;;3.20;;
20503;SDS011;10410;51.046;6.980;2022-07-23T11:47:47;5.57;;;2.65;;
20503;SDS011;10410;51.046;6.980;2022-07-23T12:01:55;5.53;;;2.92;;
20503;SDS011;10410;51.046;6.980;2022-07-23T12:09:00;3.60;;;2.10;;
20503;SDS011;10410;51.046;6.980;2022-07-23T12:16:01;10.32;;;2.53;;
20503;SDS011;10410;51.046;6.980;2022-07-23T12:23:03;6.13;;;1.95;;
20503;SDS011;10410;51.046;6.980;2022-07-23T12:30:24;2.05;;;1.65;;
20503;SDS011;10410;51.046;6.980;2022-07-23T12:37:34;8.75;;;2.40;;
20503;SDS011;10410;51.046;6.980;2022-07-23T12:44:35;4.72;;;1.63;;
20503;SDS011;10410;51.046;6.980;2022-07-23T12:51:39;4.68;;;1.73;;
20503;SDS011;10410;51.046;6.980;2022-07-23T13:06:08;3.97;;;2.25;;
20503;SDS011;10410;51.046;6.980;2022-07-23T13:13:11;3.30;;;1.60;;
20503;SDS011;10410;51.046;6.980;2022-07-23T13:20:15;2.50;;;1.00;;
20503;SDS011;10410;51.046;6.980;2022-07-23T13:27:19;4.22;;;0.98;;
20503;SDS011;10410;51.046;6.980;2022-07-23T13:34:19;11.75;;;1.30;;
20503;SDS011;10410;51.046;6.980;2022-07-23T13:41:20;2.40;;;0.93;;
20503;SDS011;10410;51.046;6.980;2022-07-23T13:48:21;1.15;;;0.90;;
20503;SDS011;10410;51.046;6.980;2022-07-23T13:55:22;1.90;;;0.90;;
20503;SDS011;10410;51.046;6.980;2022-07-23T14:02:26;0.75;;;0.60;;
20503;SDS011;10410;51.046;6.980;2022-07-23T14:09:28;1.48;;;0.63;;
20503;SDS011;10410;51.046;6.980;2022-07-23T14:16:29;0.60;;;0.40;;
20503;SDS011;10410;51.046;6.980;2022-07-23T14:23:31;0.75;;;0.47;;
20503;SDS011;10410;51.046;6.980;2022-07-23T14:30:32;0.52;;;0.40;;
20503;SDS011;10410;51.046;6.980;2022-07-23T14:37:34;0.57;;;0.40;;
20503;SDS011;10410;51.046;6.980;2022-07-23T14:44:35;1.02;;;0.57;;
20503;SDS011;10410;51.046;6.980;2022-07-23T14:51:37;0.47;;;0.47;;
20503;SDS011;10410;51.046;6.980;2022-07-23T14:58:37;0.77;;;0.52;;
20503;SDS011;10410;51.046;6.980;2022-07-23T15:05:38;0.82;;;0.40;;
20503;SDS011;10410;51.046;6.980;2022-07-23T15:12:39;1.10;;;0.82;;
20503;SDS011;10410;51.046;6.980;2022-07-23T15:19:40;0.25;;;0.25;;
20503;SDS011;10410;51.046;6.980;2022-07-23T15:26:40;1.23;;;0.50;;
20503;SDS011;10410;51.046;6.980;2022-07-23T15:33:41;1.45;;;0.50;;
20503;SDS011;10410;51.046;6.980;2022-07-23T15:40:41;1.23;;;0.40;;
20503;SDS011;10410;51.046;6.980;2022-07-23T15:47:42;0.85;;;0.40;;
20503;SDS011;10410;51.046;6.980;2022-07-23T15:54:43;1.80;;;0.63;;
20503;SDS011;10410;51.046;6.980;2022-07-23T16:01:43;2.95;;;1.23;;
20503;SDS011;10410;51.046;6.980;2022-07-23T16:08:44;0.88;;;0.50;;
20503;SDS011;10410;51.046;6.980;2022-07-23T16:15:44;1.63;;;0.80;;
20503;SDS011;10410;51.046;6.980;2022-07-23T16:22:45;0.28;;;0.28;;
20503;SDS011;10410;51.046;6.980;2022-07-23T16:29:46;0.98;;;0.60;;
20503;SDS011;10410;51.046;6.980;2022-07-23T16:36:46;0.82;;;0.40;;
20503;SDS011;10410;51.046;6.980;2022-07-23T16:43:47;0.40;;;0.38;;
20503;SDS011;10410;51.046;6.980;2022-07-23T16:50:48;0.52;;;0.47;;
20503;SDS011;10410;51.046;6.980;2022-07-23T16:57:48;0.73;;;0.50;;
20503;SDS011;10410;51.046;6.980;2022-07-23T17:04:49;0.40;;;0.40;;
20503;SDS011;10410;51.046;6.980;2022-07-23T17:11:49;0.95;;;0.57;;
20503;SDS011;10410;51.046;6.980;2022-07-23T17:18:50;0.30;;;0.30;;
20503;SDS011;10410;51.046;6.980;2022-07-23T17:25:51;1.45;;;0.50;;
20503;SDS011;10410;51.046;6.980;2022-07-23T17:32:54;0.50;;;0.50;;
20503;SDS011;10410;51.046;6.980;2022-07-23T17:39:55;0.60;;;0.50;;
20503;SDS011;10410;51.046;6.980;2022-07-23T17:46:55;1.02;;;0.30;;
20503;SDS011;10410;51.046;6.980;2022-07-23T17:53:56;0.50;;;0.50;;
20503;SDS011;10410;51.046;6.980;2022-07-23T18:00:57;0.73;;;0.65;;
20503;SDS011;10410;51.046;6.980;2022-07-23T18:07:58;0.50;;;0.40;;
20503;SDS011;10410;51.046;6.980;2022-07-23T18:14:59;0.63;;;0.43;;
20503;SDS011;10410;51.046;6.980;2022-07-23T18:22:05;0.63;;;0.60;;
20503;SDS011;10410;51.046;6.980;2022-07-23T18:29:06;4.78;;;0.60;;
20503;SDS011;10410;51.046;6.980;2022-07-23T18:36:07;0.35;;;0.30;;
20503;SDS011;10410;51.046;6.980;2022-07-23T18:43:08;0.30;;;0.30;;
20503;SDS011;10410;51.046;6.980;2022-07-23T18:50:10;1.02;;;0.47;;
20503;SDS011;10410;51.046;6.980;2022-07-23T18:57:11;0.50;;;0.40;;
20503;SDS011;10410;51.046;6.980;2022-07-23T19:04:12;0.40;;;0.40;;
20503;SDS011;10410;51.046;6.980;2022-07-23T19:11:12;0.52;;;0.43;;
20503;SDS011;10410;51.046;6.980;2022-07-23T19:18:13;0.30;;;0.20;;
20503;SDS011;10410;51.046;6.980;2022-07-23T19:25:14;0.40;;;0.40;;
20503;SDS011;10410;51.046;6.980;2022-07-23T19:32:14;0.32;;;0.32;;
20503;SDS011;10410;51.046;6.980;2022-07-23T19:39:15;1.30;;;0.50;;
20503;SDS011;10410;51.046;6.980;2022-07-23T19:46:16;0.98;;;0.70;;
20503;SDS011;10410;51.046;6.980;2022-07-23T19:53:17;0.57;;;0.50;;
20503;SDS011;10410;51.046;6.980;2022-07-23T20:00:18;1.98;;;0.57;;
20503;SDS011;10410;51.046;6.980;2022-07-23T20:07:20;0.70;;;0.55;;
20503;SDS011;10410;51.046;6.980;2022-07-23T20:14:23;1.27;;;0.75;;
20503;SDS011;10410;51.046;6.980;2022-07-23T20:21:24;4.07;;;0.85;;
20503;SDS011;10410;51.046;6.980;2022-07-23T20:28:25;1.08;;;0.77;;
20503;SDS011;10410;51.046;6.980;2022-07-23T20:35:26;1.27;;;0.75;;
20503;SDS011;10410;51.046;6.980;2022-07-23T20:42:27;0.40;;;0.38;;
20503;SDS011;10410;51.046;6.980;2022-07-23T20:49:27;0.65;;;0.50;;
20503;SDS011;10410;51.046;6.980;2022-07-23T20:56:28;2.70;;;1.15;;
20503;SDS011;10410;51.046;6.980;2022-07-23T21:03:28;4.18;;;0.90;;
20503;SDS011;10410;51.046;6.980;2022-07-23T21:10:30;3.33;;;1.50;;
20503;SDS011;10410;51.046;6.980;2022-07-23T21:17:31;4.47;;;1.10;;
20503;SDS011;10410;51.046;6.980;2022-07-23T21:24:32;2.13;;;1.10;;
20503;SDS011;10410;51.046;6.980;2022-07-23T21:31:33;5.83;;;1.93;;
20503;SDS011;10410;51.046;6.980;2022-07-23T21:38:34;2.40;;;1.33;;
20503;SDS011;10410;51.046;6.980;2022-07-23T21:45:35;4.17;;;1.30;;
20503;SDS011;10410;51.046;6.980;2022-07-23T21:52:35;50.30;;;10.60;;
20503;SDS011;10410;51.046;6.980;2022-07-23T21:59:36;17.17;;;5.23;;
20503;SDS011;10410;51.046;6.980;2022-07-23T22:06:38;4.13;;;2.00;;
20503;SDS011;10410;51.046;6.980;2022-07-23T22:13:40;3.50;;;1.73;;
20503;SDS011;10410;51.046;6.980;2022-07-23T22:20:41;5.10;;;2.10;;
20503;SDS011;10410;51.046;6.980;2022-07-23T22:27:48;3.33;;;2.40;;
20503;SDS011;10410;51.046;6.980;2022-07-23T22:34:49;2.70;;;1.83;;
20503;SDS011;10410;51.046;6.980;2022-07-23T22:41:50;8.40;;;2.63;;
20503;SDS011;10410;51.046;6.980;2022-07-23T22:48:51;4.13;;;2.47;;
20503;SDS011;10410;51.046;6.980;2022-07-23T22:55:51;6.47;;;2.40;;
20503;SDS011;10410;51.046;6.980;2022-07-23T23:02:52;4.80;;;2.30;;
20503;SDS011;10410;51.046;6.980;2022-07-23T23:09:53;12.03;;;2.93;;
20503;SDS011;10410;51.046;6.980;2022-07-23T23:16:54;6.57;;;3.30;;
20503;SDS011;10410;51.046;6.980;2022-07-23T23:23:55;5.63;;;2.93;;
20503;SDS011;10410;51.046;6.980;2022-07-23T23:30:55;7.73;;;3.43;;
20503;SDS011;10410;51.046;6.980;2022-07-23T23:37:57;5.83;;;3.47;;
20503;SDS011;10410;51.046;6.980;2022-07-23T23:44:57;4.90;;;2.97;;
20503;SDS011;10410;51.046;6.980;2022-07-23T23:51:58;6.27;;;3.40;;
20503;SDS011;10410;51.046;6.980;2022-07-23T23:58:59;8.50;;;3.57;;
